sensor_id;sensor_type;location;lat;lon;timestamp;pressure;altitude;pressure_sealevel;temperature;humidity
25510;BME280;13413;52.336;21.200;2024-01-15T00:01:30;98295.76;;;2.66;83.77
25510;BME280;13413;52.336;21.200;2024-01-15T00:04:18;98293.55;;;2.67;83.60
25510;BME280;13413;52.336;21.200;2024-01-15T00:07:05;98286.31;;;2.68;83.79
25510;BME280;13413;52.336;21.200;2024-01-15T00:09:53;98280.60;;;2.71;83.45
25510;BME280;13413;52.336;21.200;2024-01-15T00:12:40;98276.70;;;2.68;83.71
25510;BME280;13413;52.336;21.200;2024-01-15T00:15:26;98276.92;;;2.75;83.39
25510;BME280;13413;52.336;21.200;2024-01-15T00:25:43;98258.40;;;2.86;82.78
25510;BME280;13413;52.336;21.200;2024-01-15T00:28:30;98252.55;;;2.82;82.90
25510;BME280;13413;52.336;21.200;2024-01-15T00:31:18;98247.25;;;2.83;82.66
25510;BME280;13413;52.336;21.200;2024-01-15T00:34:05;98242.54;;;2.86;82.48
25510;BME280;13413;52.336;21.200;2024-01-15T00:36:52;98238.50;;;2.88;82.60
25510;BME280;13413;52.336;21.200;2024-01-15T00:39:40;98234.59;;;2.90;82.62
25510;BME280;13413;52.336;21.200;2024-01-15T00:42:27;98229.52;;;2.85;82.89
25510;BME280;13413;52.336;21.200;2024-01-15T00:45:14;98229.10;;;2.83;82.86
25510;BME280;13413;52.336;21.200;2024-01-15T00:48:02;98226.29;;;2.79;83.15
25510;BME280;13413;52.336;21.200;2024-01-15T00:50:49;98220.54;;;2.74;83.24
25510;BME280;13413;52.336;21.200;2024-01-15T00:53:36;98214.34;;;2.72;83.35
25510;BME280;13413;52.336;21.200;2024-01-15T00:56:24;98207.25;;;2.71;83.30
25510;BME280;13413;52.336;21.200;2024-01-15T00:59:11;98204.14;;;2.72;83.44
25510;BME280;13413;52.336;21.200;2024-01-15T01:01:58;98202.67;;;2.72;83.31
25510;BME280;13413;52.336;21.200;2024-01-15T01:04:45;98196.24;;;2.76;83.14
25510;BME280;13413;52.336;21.200;2024-01-15T01:07:33;98191.54;;;2.76;83.18
25510;BME280;13413;52.336;21.200;2024-01-15T01:10:20;98187.02;;;2.75;82.99
25510;BME280;13413;52.336;21.200;2024-01-15T01:13:07;98184.04;;;2.80;82.86
25510;BME280;13413;52.336;21.200;2024-01-15T01:15:54;98181.41;;;2.80;82.75
25510;BME280;13413;52.336;21.200;2024-01-15T01:18:42;98182.90;;;2.78;82.83
25510;BME280;13413;52.336;21.200;2024-01-15T01:21:29;98180.52;;;2.77;82.84
25510;BME280;13413;52.336;21.200;2024-01-15T01:24:16;98179.92;;;2.78;82.67
25510;BME280;13413;52.336;21.200;2024-01-15T01:27:04;98176.04;;;2.76;82.98
25510;BME280;13413;52.336;21.200;2024-01-15T01:29:54;98170.98;;;2.74;83.01
25510;BME280;13413;52.336;21.200;2024-01-15T01:32:42;98167.52;;;2.72;83.15
25510;BME280;13413;52.336;21.200;2024-01-15T01:35:29;98161.96;;;2.75;83.03
25510;BME280;13413;52.336;21.200;2024-01-15T01:38:16;98162.85;;;2.75;83.20
25510;BME280;13413;52.336;21.200;2024-01-15T01:41:03;98159.09;;;2.65;84.00
25510;BME280;13413;52.336;21.200;2024-01-15T01:43:52;98160.52;;;2.64;83.86
25510;BME280;13413;52.336;21.200;2024-01-15T01:46:40;98154.39;;;2.62;83.88
25510;BME280;13413;52.336;21.200;2024-01-15T01:49:30;98153.35;;;2.58;84.15
25510;BME280;13413;52.336;21.200;2024-01-15T01:52:18;98148.16;;;2.59;84.19
25510;BME280;13413;52.336;21.200;2024-01-15T01:55:07;98147.52;;;2.59;83.97
25510;BME280;13413;52.336;21.200;2024-01-15T02:00:43;98141.45;;;2.58;84.16
25510;BME280;13413;52.336;21.200;2024-01-15T02:03:31;98141.82;;;2.57;84.45
25510;BME280;13413;52.336;21.200;2024-01-15T02:06:18;98135.91;;;2.58;84.33
25510;BME280;13413;52.336;21.200;2024-01-15T02:09:07;98129.04;;;2.59;84.11
25510;BME280;13413;52.336;21.200;2024-01-15T02:11:55;98122.19;;;2.57;84.16
25510;BME280;13413;52.336;21.200;2024-01-15T02:14:44;98120.25;;;2.58;84.23
25510;BME280;13413;52.336;21.200;2024-01-15T02:17:33;98123.63;;;2.62;83.92
25510;BME280;13413;52.336;21.200;2024-01-15T02:20:21;98123.56;;;2.60;84.29
25510;BME280;13413;52.336;21.200;2024-01-15T02:23:13;98123.53;;;2.68;83.92
25510;BME280;13413;52.336;21.200;2024-01-15T02:26:01;98116.66;;;2.69;83.90
25510;BME280;13413;52.336;21.200;2024-01-15T02:28:48;98113.10;;;2.69;83.79
25510;BME280;13413;52.336;21.200;2024-01-15T02:31:37;98104.63;;;2.66;83.64
25510;BME280;13413;52.336;21.200;2024-01-15T02:34:24;98106.46;;;2.68;83.58
25510;BME280;13413;52.336;21.200;2024-01-15T02:37:10;98103.80;;;2.67;83.74
25510;BME280;13413;52.336;21.200;2024-01-15T02:47:27;98075.31;;;2.74;83.14
25510;BME280;13413;52.336;21.200;2024-01-15T02:50:14;98076.64;;;2.74;83.23
25510;BME280;13413;52.336;21.200;2024-01-15T02:53:02;98069.73;;;2.76;82.96
25510;BME280;13413;52.336;21.200;2024-01-15T02:55:49;98067.83;;;2.74;82.94
25510;BME280;13413;52.336;21.200;2024-01-15T02:58:36;98060.29;;;2.73;82.84
25510;BME280;13413;52.336;21.200;2024-01-15T03:01:24;98064.07;;;2.71;82.86
25510;BME280;13413;52.336;21.200;2024-01-15T03:04:14;98052.17;;;2.74;82.76
25510;BME280;13413;52.336;21.200;2024-01-15T03:07:01;98039.52;;;2.75;82.56
25510;BME280;13413;52.336;21.200;2024-01-15T03:09:48;98033.34;;;2.72;82.52
25510;BME280;13413;52.336;21.200;2024-01-15T03:12:35;98030.37;;;2.74;82.54
25510;BME280;13413;52.336;21.200;2024-01-15T03:15:22;98024.86;;;2.72;82.90
25510;BME280;13413;52.336;21.200;2024-01-15T03:18:09;98025.57;;;2.66;82.91
25510;BME280;13413;52.336;21.200;2024-01-15T03:20:58;98017.56;;;2.70;82.72
25510;BME280;13413;52.336;21.200;2024-01-15T03:23:45;98012.72;;;2.66;82.58
25510;BME280;13413;52.336;21.200;2024-01-15T03:26:32;98009.98;;;2.62;82.97
25510;BME280;13413;52.336;21.200;2024-01-15T03:29:20;98009.37;;;2.62;82.98
25510;BME280;13413;52.336;21.200;2024-01-15T03:32:07;98003.03;;;2.60;83.35
25510;BME280;13413;52.336;21.200;2024-01-15T03:34:54;98000.20;;;2.57;83.58
25510;BME280;13413;52.336;21.200;2024-01-15T03:37:42;97992.80;;;2.53;83.61
25510;BME280;13413;52.336;21.200;2024-01-15T03:40:30;97995.98;;;2.53;83.51
25510;BME280;13413;52.336;21.200;2024-01-15T03:43:17;97997.02;;;2.50;83.71
25510;BME280;13413;52.336;21.200;2024-01-15T03:46:04;97994.08;;;2.50;84.07
25510;BME280;13413;52.336;21.200;2024-01-15T03:48:51;97995.98;;;2.48;84.13
25510;BME280;13413;52.336;21.200;2024-01-15T03:51:39;97991.90;;;2.49;84.11
25510;BME280;13413;52.336;21.200;2024-01-15T03:54:27;97989.64;;;2.49;84.06
25510;BME280;13413;52.336;21.200;2024-01-15T03:57:15;97988.30;;;2.47;84.34
25510;BME280;13413;52.336;21.200;2024-01-15T04:00:04;97986.66;;;2.43;84.37
25510;BME280;13413;52.336;21.200;2024-01-15T04:02:52;97978.77;;;2.45;84.22
25510;BME280;13413;52.336;21.200;2024-01-15T04:05:39;97975.89;;;2.43;84.29
25510;BME280;13413;52.336;21.200;2024-01-15T04:08:26;97968.55;;;2.46;84.24
25510;BME280;13413;52.336;21.200;2024-01-15T04:11:13;97960.63;;;2.46;84.11
25510;BME280;13413;52.336;21.200;2024-01-15T04:14:00;97950.70;;;2.42;84.07
25510;BME280;13413;52.336;21.200;2024-01-15T04:16:47;97943.48;;;2.48;84.06
25510;BME280;13413;52.336;21.200;2024-01-15T04:19:35;97937.17;;;2.50;83.82
25510;BME280;13413;52.336;21.200;2024-01-15T04:22:24;97926.84;;;2.40;84.30
25510;BME280;13413;52.336;21.200;2024-01-15T04:25:12;97924.83;;;2.44;84.06
25510;BME280;13413;52.336;21.200;2024-01-15T04:28:01;97920.06;;;2.50;83.98
25510;BME280;13413;52.336;21.200;2024-01-15T04:30:49;97914.00;;;2.47;83.74
25510;BME280;13413;52.336;21.200;2024-01-15T04:33:38;97912.13;;;2.51;83.66
25510;BME280;13413;52.336;21.200;2024-01-15T04:36:26;97904.57;;;2.48;83.79
25510;BME280;13413;52.336;21.200;2024-01-15T04:39:13;97905.98;;;2.48;83.79
25510;BME280;13413;52.336;21.200;2024-01-15T04:42:01;97901.98;;;2.50;83.59
25510;BME280;13413;52.336;21.200;2024-01-15T04:44:48;97897.52;;;2.52;83.37
25510;BME280;13413;52.336;21.200;2024-01-15T04:47:36;97893.48;;;2.51;83.32
25510;BME280;13413;52.336;21.200;2024-01-15T04:50:25;97891.16;;;2.51;83.20
25510;BME280;13413;52.336;21.200;2024-01-15T04:53:13;97893.36;;;2.54;83.06
25510;BME280;13413;52.336;21.200;2024-01-15T04:56:02;97885.85;;;2.53;82.85
25510;BME280;13413;52.336;21.200;2024-01-15T04:58:48;97884.81;;;2.53;83.27
25510;BME280;13413;52.336;21.200;2024-01-15T05:05:57;97870.67;;;2.56;82.69
25510;BME280;13413;52.336;21.200;2024-01-15T05:08:45;97872.51;;;2.62;82.40
25510;BME280;13413;52.336;21.200;2024-01-15T05:11:32;97870.16;;;2.65;82.13
25510;BME280;13413;52.336;21.200;2024-01-15T05:14:19;97873.23;;;2.65;82.12
25510;BME280;13413;52.336;21.200;2024-01-15T05:17:06;97867.98;;;2.65;81.98
25510;BME280;13413;52.336;21.200;2024-01-15T05:19:53;97870.04;;;2.68;81.90
25510;BME280;13413;52.336;21.200;2024-01-15T05:22:41;97867.41;;;2.67;81.35
25510;BME280;13413;52.336;21.200;2024-01-15T05:25:28;97866.05;;;2.68;81.41
25510;BME280;13413;52.336;21.200;2024-01-15T05:28:16;97865.58;;;2.73;81.29
25510;BME280;13413;52.336;21.200;2024-01-15T05:31:03;97870.63;;;2.75;80.98
25510;BME280;13413;52.336;21.200;2024-01-15T05:33:50;97857.23;;;2.77;81.00
25510;BME280;13413;52.336;21.200;2024-01-15T05:36:37;97860.02;;;2.73;80.92
25510;BME280;13413;52.336;21.200;2024-01-15T05:39:24;97862.89;;;2.79;80.88
25510;BME280;13413;52.336;21.200;2024-01-15T05:42:11;97863.86;;;2.80;81.07
25510;BME280;13413;52.336;21.200;2024-01-15T05:44:59;97865.58;;;2.82;80.73
25510;BME280;13413;52.336;21.200;2024-01-15T05:47:46;97867.26;;;2.86;80.72
25510;BME280;13413;52.336;21.200;2024-01-15T05:50:33;97864.65;;;2.82;80.62
25510;BME280;13413;52.336;21.200;2024-01-15T05:53:21;97861.00;;;2.75;80.35
25510;BME280;13413;52.336;21.200;2024-01-15T05:56:08;97857.15;;;2.76;80.26
25510;BME280;13413;52.336;21.200;2024-01-15T05:58:56;97856.98;;;2.78;80.42
25510;BME280;13413;52.336;21.200;2024-01-15T06:01:43;97854.07;;;2.83;80.39
25510;BME280;13413;52.336;21.200;2024-01-15T06:04:31;97854.29;;;2.77;80.42
25510;BME280;13413;52.336;21.200;2024-01-15T06:07:18;97850.20;;;2.84;80.42
25510;BME280;13413;52.336;21.200;2024-01-15T06:10:06;97849.39;;;2.82;80.36
25510;BME280;13413;52.336;21.200;2024-01-15T06:12:53;97848.95;;;2.78;80.40
25510;BME280;13413;52.336;21.200;2024-01-15T06:15:41;97847.85;;;2.80;80.43
25510;BME280;13413;52.336;21.200;2024-01-15T06:18:29;97843.52;;;2.74;80.40
25510;BME280;13413;52.336;21.200;2024-01-15T06:21:17;97839.15;;;2.77;80.56
25510;BME280;13413;52.336;21.200;2024-01-15T06:24:04;97837.26;;;2.72;80.51
25510;BME280;13413;52.336;21.200;2024-01-15T06:26:52;97834.70;;;2.73;80.51
25510;BME280;13413;52.336;21.200;2024-01-15T06:29:44;97830.92;;;2.74;80.24
25510;BME280;13413;52.336;21.200;2024-01-15T06:32:31;97827.05;;;2.70;80.04
25510;BME280;13413;52.336;21.200;2024-01-15T06:35:18;97823.61;;;2.73;80.00
25510;BME280;13413;52.336;21.200;2024-01-15T06:38:06;97822.98;;;2.78;79.99
25510;BME280;13413;52.336;21.200;2024-01-15T06:40:53;97823.83;;;2.78;80.01
25510;BME280;13413;52.336;21.200;2024-01-15T06:43:41;97821.19;;;2.77;79.98
25510;BME280;13413;52.336;21.200;2024-01-15T06:46:28;97823.78;;;2.77;79.72
25510;BME280;13413;52.336;21.200;2024-01-15T06:49:15;97821.75;;;2.75;79.64
25510;BME280;13413;52.336;21.200;2024-01-15T06:52:02;97825.69;;;2.78;79.43
25510;BME280;13413;52.336;21.200;2024-01-15T06:54:49;97821.48;;;2.82;79.55
25510;BME280;13413;52.336;21.200;2024-01-15T06:57:37;97819.02;;;2.73;79.17
25510;BME280;13413;52.336;21.200;2024-01-15T07:00:24;97816.50;;;2.75;78.93
25510;BME280;13413;52.336;21.200;2024-01-15T07:03:11;97818.55;;;2.84;79.00
25510;BME280;13413;52.336;21.200;2024-01-15T07:05:58;97824.65;;;2.86;79.12
25510;BME280;13413;52.336;21.200;2024-01-15T07:08:46;97820.67;;;2.81;78.94
25510;BME280;13413;52.336;21.200;2024-01-15T07:11:33;97821.85;;;2.82;79.32
25510;BME280;13413;52.336;21.200;2024-01-15T07:14:21;97819.58;;;2.81;79.62
25510;BME280;13413;52.336;21.200;2024-01-15T07:17:06;97823.13;;;2.76;80.01
25510;BME280;13413;52.336;21.200;2024-01-15T07:26:09;97823.63;;;2.61;81.13
25510;BME280;13413;52.336;21.200;2024-01-15T07:28:59;97819.92;;;2.57;80.98
25510;BME280;13413;52.336;21.200;2024-01-15T07:31:50;97819.14;;;2.58;81.02
25510;BME280;13413;52.336;21.200;2024-01-15T07:34:38;97821.88;;;2.59;80.76
25510;BME280;13413;52.336;21.200;2024-01-15T07:37:26;97824.93;;;2.58;80.54
25510;BME280;13413;52.336;21.200;2024-01-15T07:40:13;97820.90;;;2.58;80.50
25510;BME280;13413;52.336;21.200;2024-01-15T07:43:00;97825.28;;;2.61;80.52
25510;BME280;13413;52.336;21.200;2024-01-15T07:45:48;97822.02;;;2.60;80.76
25510;BME280;13413;52.336;21.200;2024-01-15T07:48:35;97827.17;;;2.61;80.88
25510;BME280;13413;52.336;21.200;2024-01-15T07:51:22;97819.83;;;2.60;80.92
25510;BME280;13413;52.336;21.200;2024-01-15T07:54:09;97824.48;;;2.58;81.29
25510;BME280;13413;52.336;21.200;2024-01-15T07:56:58;97821.16;;;2.52;81.47
25510;BME280;13413;52.336;21.200;2024-01-15T07:59:46;97813.98;;;2.46;81.71
25510;BME280;13413;52.336;21.200;2024-01-15T08:02:33;97819.02;;;2.52;81.69
25510;BME280;13413;52.336;21.200;2024-01-15T08:05:20;97823.26;;;2.48;81.48
25510;BME280;13413;52.336;21.200;2024-01-15T08:08:07;97814.23;;;2.51;81.25
25510;BME280;13413;52.336;21.200;2024-01-15T08:10:55;97822.23;;;2.50;80.84
25510;BME280;13413;52.336;21.200;2024-01-15T08:13:42;97815.75;;;2.57;80.53
25510;BME280;13413;52.336;21.200;2024-01-15T08:16:29;97821.98;;;2.65;80.26
25510;BME280;13413;52.336;21.200;2024-01-15T08:19:17;97820.86;;;2.67;80.21
25510;BME280;13413;52.336;21.200;2024-01-15T08:22:06;97816.60;;;2.70;80.27
25510;BME280;13413;52.336;21.200;2024-01-15T08:24:53;97819.42;;;2.68;80.75
25510;BME280;13413;52.336;21.200;2024-01-15T08:27:40;97822.77;;;2.62;81.42
25510;BME280;13413;52.336;21.200;2024-01-15T08:30:27;97821.58;;;2.57;81.53
25510;BME280;13413;52.336;21.200;2024-01-15T08:33:15;97818.59;;;2.56;81.55
25510;BME280;13413;52.336;21.200;2024-01-15T08:36:02;97821.15;;;2.55;81.73
25510;BME280;13413;52.336;21.200;2024-01-15T08:38:49;97821.68;;;2.56;81.48
25510;BME280;13413;52.336;21.200;2024-01-15T08:41:36;97826.11;;;2.55;81.22
25510;BME280;13413;52.336;21.200;2024-01-15T08:44:23;97822.13;;;2.68;81.07
25510;BME280;13413;52.336;21.200;2024-01-15T08:47:10;97823.16;;;2.79;80.60
25510;BME280;13413;52.336;21.200;2024-01-15T08:49:58;97828.04;;;2.89;79.95
25510;BME280;13413;52.336;21.200;2024-01-15T08:52:45;97825.77;;;2.99;79.29
25510;BME280;13413;52.336;21.200;2024-01-15T08:55:32;97824.86;;;3.05;78.90
25510;BME280;13413;52.336;21.200;2024-01-15T08:58:19;97827.98;;;3.12;78.27
25510;BME280;13413;52.336;21.200;2024-01-15T09:01:06;97833.42;;;3.14;77.88
25510;BME280;13413;52.336;21.200;2024-01-15T09:03:54;97829.41;;;3.16;77.80
25510;BME280;13413;52.336;21.200;2024-01-15T09:06:41;97834.86;;;3.13;77.53
25510;BME280;13413;52.336;21.200;2024-01-15T09:09:29;97843.21;;;3.10;77.64
25510;BME280;13413;52.336;21.200;2024-01-15T09:12:16;97844.31;;;3.01;77.20
25510;BME280;13413;52.336;21.200;2024-01-15T09:15:04;97842.00;;;2.99;77.23
25510;BME280;13413;52.336;21.200;2024-01-15T09:17:53;97847.66;;;3.00;77.84
25510;BME280;13413;52.336;21.200;2024-01-15T09:20:40;97844.02;;;3.00;78.23
25510;BME280;13413;52.336;21.200;2024-01-15T09:23:27;97847.54;;;2.95;78.46
25510;BME280;13413;52.336;21.200;2024-01-15T09:26:15;97845.89;;;2.87;78.96
25510;BME280;13413;52.336;21.200;2024-01-15T09:29:02;97845.29;;;2.87;78.97
25510;BME280;13413;52.336;21.200;2024-01-15T09:31:49;97844.89;;;2.88;79.26
25510;BME280;13413;52.336;21.200;2024-01-15T09:34:37;97840.88;;;2.90;78.91
25510;BME280;13413;52.336;21.200;2024-01-15T09:37:22;97832.14;;;2.94;78.94
25510;BME280;13413;52.336;21.200;2024-01-15T09:42:50;97832.55;;;3.05;78.03
25510;BME280;13413;52.336;21.200;2024-01-15T09:45:37;97830.60;;;3.04;77.51
25510;BME280;13413;52.336;21.200;2024-01-15T09:48:25;97828.80;;;3.10;77.48
25510;BME280;13413;52.336;21.200;2024-01-15T09:51:12;97824.48;;;3.12;77.14
25510;BME280;13413;52.336;21.200;2024-01-15T09:53:59;97826.95;;;3.16;76.88
25510;BME280;13413;52.336;21.200;2024-01-15T09:56:48;97828.95;;;3.18;76.82
25510;BME280;13413;52.336;21.200;2024-01-15T09:59:36;97828.75;;;3.20;76.90
25510;BME280;13413;52.336;21.200;2024-01-15T10:02:23;97821.50;;;3.20;76.57
25510;BME280;13413;52.336;21.200;2024-01-15T10:05:11;97820.41;;;3.15;75.80
25510;BME280;13413;52.336;21.200;2024-01-15T10:08:01;97819.52;;;3.13;75.77
25510;BME280;13413;52.336;21.200;2024-01-15T10:10:49;97822.88;;;3.16;75.82
25510;BME280;13413;52.336;21.200;2024-01-15T10:13:37;97819.96;;;3.15;75.68
25510;BME280;13413;52.336;21.200;2024-01-15T10:19:12;97823.42;;;3.12;74.69
25510;BME280;13413;52.336;21.200;2024-01-15T10:21:59;97821.41;;;3.13;74.51
25510;BME280;13413;52.336;21.200;2024-01-15T10:24:46;97812.54;;;3.17;74.48
25510;BME280;13413;52.336;21.200;2024-01-15T10:27:33;97815.16;;;3.23;74.55
25510;BME280;13413;52.336;21.200;2024-01-15T10:30:21;97809.29;;;3.20;74.05
25510;BME280;13413;52.336;21.200;2024-01-15T10:33:08;97813.17;;;3.21;73.85
25510;BME280;13413;52.336;21.200;2024-01-15T10:35:57;97815.16;;;3.18;72.80
25510;BME280;13413;52.336;21.200;2024-01-15T10:38:45;97805.55;;;3.26;73.21
25510;BME280;13413;52.336;21.200;2024-01-15T10:41:33;97806.37;;;3.24;72.56
25510;BME280;13413;52.336;21.200;2024-01-15T10:44:20;97805.80;;;3.27;72.61
25510;BME280;13413;52.336;21.200;2024-01-15T10:47:07;97805.48;;;3.30;72.48
25510;BME280;13413;52.336;21.200;2024-01-15T10:49:55;97794.43;;;3.33;72.62
25510;BME280;13413;52.336;21.200;2024-01-15T10:52:43;97795.14;;;3.36;72.34
25510;BME280;13413;52.336;21.200;2024-01-15T10:55:30;97809.34;;;3.40;72.45
25510;BME280;13413;52.336;21.200;2024-01-15T10:58:19;97816.09;;;3.44;72.77
25510;BME280;13413;52.336;21.200;2024-01-15T11:01:08;97813.98;;;3.42;72.49
25510;BME280;13413;52.336;21.200;2024-01-15T11:03:55;97820.01;;;3.31;72.13
25510;BME280;13413;52.336;21.200;2024-01-15T11:06:49;97818.26;;;3.34;72.58
25510;BME280;13413;52.336;21.200;2024-01-15T11:09:37;97818.06;;;3.34;72.33
25510;BME280;13413;52.336;21.200;2024-01-15T11:12:25;97815.35;;;3.39;72.63
25510;BME280;13413;52.336;21.200;2024-01-15T11:15:20;97812.63;;;3.30;72.15
25510;BME280;13413;52.336;21.200;2024-01-15T11:18:08;97806.92;;;3.26;72.17
25510;BME280;13413;52.336;21.200;2024-01-15T11:21:24;97804.73;;;3.24;72.20
25510;BME280;13413;52.336;21.200;2024-01-15T11:24:11;97802.04;;;3.25;72.45
25510;BME280;13413;52.336;21.200;2024-01-15T11:27:42;97808.41;;;3.20;72.49
25510;BME280;13413;52.336;21.200;2024-01-15T11:30:29;97799.88;;;3.22;72.84
25510;BME280;13413;52.336;21.200;2024-01-15T11:33:33;97794.70;;;3.14;72.47
25510;BME280;13413;52.336;21.200;2024-01-15T11:36:21;97795.65;;;3.18;72.64
25510;BME280;13413;52.336;21.200;2024-01-15T11:42:28;97793.40;;;3.22;72.57
25510;BME280;13413;52.336;21.200;2024-01-15T11:45:18;97791.17;;;3.21;72.20
25510;BME280;13413;52.336;21.200;2024-01-15T11:48:13;97789.80;;;3.24;72.09
25510;BME280;13413;52.336;21.200;2024-01-15T11:51:02;97788.36;;;3.27;72.31
25510;BME280;13413;52.336;21.200;2024-01-15T11:53:51;97784.10;;;3.26;72.05
25510;BME280;13413;52.336;21.200;2024-01-15T12:05:56;97781.20;;;3.06;74.70
25510;BME280;13413;52.336;21.200;2024-01-15T12:08:43;97784.95;;;2.97;75.11
25510;BME280;13413;52.336;21.200;2024-01-15T12:11:33;97776.58;;;2.97;75.02
25510;BME280;13413;52.336;21.200;2024-01-15T12:14:23;97777.83;;;3.03;74.16
25510;BME280;13413;52.336;21.200;2024-01-15T12:17:11;97783.33;;;3.06;73.74
25510;BME280;13413;52.336;21.200;2024-01-15T12:19:58;97782.08;;;3.12;73.07
25510;BME280;13413;52.336;21.200;2024-01-15T12:22:47;97775.00;;;3.18;72.90
25510;BME280;13413;52.336;21.200;2024-01-15T12:25:35;97778.14;;;3.19;72.74
25510;BME280;13413;52.336;21.200;2024-01-15T12:28:22;97776.37;;;3.25;72.69
25510;BME280;13413;52.336;21.200;2024-01-15T12:31:09;97762.63;;;3.18;72.46
25510;BME280;13413;52.336;21.200;2024-01-15T12:33:57;97766.13;;;3.18;72.65
25510;BME280;13413;52.336;21.200;2024-01-15T12:36:44;97759.38;;;3.13;72.77
25510;BME280;13413;52.336;21.200;2024-01-15T12:39:32;97757.80;;;3.13;73.71
25510;BME280;13413;52.336;21.200;2024-01-15T12:42:20;97752.52;;;3.08;73.81
25510;BME280;13413;52.336;21.200;2024-01-15T12:45:09;97751.20;;;3.09;73.56
25510;BME280;13413;52.336;21.200;2024-01-15T12:47:57;97745.65;;;3.03;73.49
25510;BME280;13413;52.336;21.200;2024-01-15T12:50:45;97763.58;;;2.91;73.41
25510;BME280;13413;52.336;21.200;2024-01-15T12:53:32;97767.17;;;2.97;73.91
25510;BME280;13413;52.336;21.200;2024-01-15T12:56:20;97764.19;;;2.93;74.09
25510;BME280;13413;52.336;21.200;2024-01-15T12:59:07;97759.75;;;2.92;74.82
25510;BME280;13413;52.336;21.200;2024-01-15T13:01:54;97756.24;;;2.86;75.59
25510;BME280;13413;52.336;21.200;2024-01-15T13:04:42;97759.59;;;2.77;76.06
25510;BME280;13413;52.336;21.200;2024-01-15T13:07:29;97754.46;;;2.74;76.67
25510;BME280;13413;52.336;21.200;2024-01-15T13:10:17;97756.88;;;2.76;76.74
25510;BME280;13413;52.336;21.200;2024-01-15T13:13:04;97761.56;;;2.72;76.63
25510;BME280;13413;52.336;21.200;2024-01-15T13:15:52;97766.00;;;2.72;76.27
25510;BME280;13413;52.336;21.200;2024-01-15T13:18:40;97760.65;;;2.68;75.83
25510;BME280;13413;52.336;21.200;2024-01-15T13:21:27;97773.87;;;2.78;75.97
25510;BME280;13413;52.336;21.200;2024-01-15T13:24:14;97762.98;;;2.82;75.71
25510;BME280;13413;52.336;21.200;2024-01-15T13:27:02;97769.98;;;2.76;75.64
25510;BME280;13413;52.336;21.200;2024-01-15T13:29:49;97771.01;;;2.78;75.25
25510;BME280;13413;52.336;21.200;2024-01-15T13:32:36;97777.73;;;2.74;75.41
25510;BME280;13413;52.336;21.200;2024-01-15T13:35:24;97764.53;;;2.74;75.87
25510;BME280;13413;52.336;21.200;2024-01-15T13:38:11;97769.18;;;2.71;75.90
25510;BME280;13413;52.336;21.200;2024-01-15T13:40:58;97766.19;;;2.71;76.06
25510;BME280;13413;52.336;21.200;2024-01-15T13:43:48;97779.13;;;2.73;76.19
25510;BME280;13413;52.336;21.200;2024-01-15T13:46:36;97768.97;;;2.70;76.34
25510;BME280;13413;52.336;21.200;2024-01-15T13:49:23;97769.27;;;2.68;76.24
25510;BME280;13413;52.336;21.200;2024-01-15T13:52:11;97774.12;;;2.67;76.10
25510;BME280;13413;52.336;21.200;2024-01-15T13:54:58;97781.16;;;2.65;75.89
25510;BME280;13413;52.336;21.200;2024-01-15T13:57:46;97771.58;;;2.74;75.95
25510;BME280;13413;52.336;21.200;2024-01-15T14:00:33;97771.89;;;2.78;75.65
25510;BME280;13413;52.336;21.200;2024-01-15T14:03:20;97767.66;;;2.73;75.42
25510;BME280;13413;52.336;21.200;2024-01-15T14:06:07;97766.88;;;2.76;75.39
25510;BME280;13413;52.336;21.200;2024-01-15T14:08:54;97775.65;;;2.80;75.17
25510;BME280;13413;52.336;21.200;2024-01-15T14:11:51;97777.47;;;2.75;75.02
25510;BME280;13413;52.336;21.200;2024-01-15T14:14:38;97783.12;;;2.73;74.85
25510;BME280;13413;52.336;21.200;2024-01-15T14:17:23;97772.56;;;2.79;74.70
25510;BME280;13413;52.336;21.200;2024-01-15T14:28:43;97781.48;;;2.85;74.47
25510;BME280;13413;52.336;21.200;2024-01-15T14:31:52;97783.81;;;2.80;74.68
25510;BME280;13413;52.336;21.200;2024-01-15T14:34:40;97792.36;;;2.77;74.08
25510;BME280;13413;52.336;21.200;2024-01-15T14:37:34;97787.61;;;2.76;74.48
25510;BME280;13413;52.336;21.200;2024-01-15T14:40:35;97789.64;;;2.82;74.25
25510;BME280;13413;52.336;21.200;2024-01-15T14:43:22;97790.34;;;2.79;74.10
25510;BME280;13413;52.336;21.200;2024-01-15T14:46:10;97778.70;;;2.80;74.04
25510;BME280;13413;52.336;21.200;2024-01-15T14:49:04;97778.90;;;2.80;74.11
25510;BME280;13413;52.336;21.200;2024-01-15T14:51:51;97775.77;;;2.76;74.24
25510;BME280;13413;52.336;21.200;2024-01-15T14:54:38;97774.17;;;2.76;74.28
25510;BME280;13413;52.336;21.200;2024-01-15T14:57:25;97770.86;;;2.75;74.46
25510;BME280;13413;52.336;21.200;2024-01-15T15:00:14;97773.52;;;2.74;74.38
25510;BME280;13413;52.336;21.200;2024-01-15T15:03:01;97772.52;;;2.67;74.42
25510;BME280;13413;52.336;21.200;2024-01-15T15:05:48;97770.58;;;2.70;74.58
25510;BME280;13413;52.336;21.200;2024-01-15T15:08:35;97775.79;;;2.68;74.37
25510;BME280;13413;52.336;21.200;2024-01-15T15:11:23;97781.63;;;2.68;75.23
25510;BME280;13413;52.336;21.200;2024-01-15T15:14:10;97779.69;;;2.61;75.73
25510;BME280;13413;52.336;21.200;2024-01-15T15:16:58;97769.91;;;2.54;76.35
25510;BME280;13413;52.336;21.200;2024-01-15T15:19:45;97767.22;;;2.53;76.42
25510;BME280;13413;52.336;21.200;2024-01-15T15:22:33;97761.52;;;2.46;76.54
25510;BME280;13413;52.336;21.200;2024-01-15T15:28:07;97760.84;;;2.47;76.56
25510;BME280;13413;52.336;21.200;2024-01-15T15:30:54;97760.45;;;2.45;76.69
25510;BME280;13413;52.336;21.200;2024-01-15T15:33:41;97751.39;;;2.44;77.14
25510;BME280;13413;52.336;21.200;2024-01-15T15:36:29;97749.04;;;2.41;76.97
25510;BME280;13413;52.336;21.200;2024-01-15T15:39:16;97744.70;;;2.42;76.75
25510;BME280;13413;52.336;21.200;2024-01-15T15:42:04;97750.79;;;2.44;76.14
25510;BME280;13413;52.336;21.200;2024-01-15T15:44:52;97744.30;;;2.43;75.30
25510;BME280;13413;52.336;21.200;2024-01-15T15:47:39;97747.91;;;2.56;74.84